Time;durP1;ratioP1;P1;durP2;ratioP2;P2;SDS_P1;SDS_P2;PMS_P1;PMS_P2;Temp;Humidity;BMP_temperature;BMP_pressure;BME280_temperature;BME280_humidity;BME280_pressure;Samples;Min_cycle;Max_cycle;Signal;HPM_P1;HPM_P2
2021/10/28 00:12:43;;;;;;;15.55;11.05;;;8.50;99.90;;;;;;5077334;28;20229;-78
2021/10/28 00:15:22;;;;;;;17.20;11.13;;;8.30;99.90;;;;;;5079272;28;20204;-79
2021/10/28 00:18:05;;;;;;;14.35;10.57;;;8.20;99.90;;;;;;5082744;28;20192;-79
2021/10/28 00:20:34;;;;;;;16.50;9.90;;;8.40;99.90;;;;;;5077298;28;20663;-78
2021/10/28 00:23:03;;;;;;;14.55;10.18;;;8.50;99.90;;;;;;5078450;28;20475;-79
2021/10/28 00:25:32;;;;;;;14.55;10.45;;;8.50;99.90;;;;;;5082801;28;20215;-79
2021/10/28 00:27:59;;;;;;;14.75;10.50;;;8.50;99.90;;;;;;5078388;28;20230;-79
2021/10/28 00:30:26;;;;;;;17.80;11.20;;;8.50;99.90;;;;;;5078668;28;20298;-79
2021/10/28 00:32:54;;;;;;;14.55;10.18;;;8.50;99.90;;;;;;5080781;22;20995;-78
2021/10/28 00:35:21;;;;;;;18.63;11.10;;;8.50;99.90;;;;;;5055689;28;20244;-80
2021/10/28 00:37:49;;;;;;;14.23;10.80;;;8.40;99.90;;;;;;5056593;28;20204;-80
2021/10/28 00:40:16;;;;;;;15.52;10.73;;;8.50;99.90;;;;;;5055657;28;20699;-78
2021/10/28 00:42:42;;;;;;;16.45;10.85;;;8.40;99.90;;;;;;5055028;28;20230;-78
2021/10/28 00:45:10;;;;;;;14.30;10.33;;;8.40;99.90;;;;;;5054844;28;20673;-78
2021/10/28 00:47:39;;;;;;;18.02;11.20;;;8.40;99.90;;;;;;5056832;28;20487;-77
2021/10/28 00:50:09;;;;;;;16.67;11.43;;;8.30;99.90;;;;;;5060660;28;20211;-77
2021/10/28 00:52:36;;;;;;;16.30;11.73;;;8.40;99.90;;;;;;5057002;28;20227;-78
2021/10/28 00:55:04;;;;;;;17.40;11.45;;;8.10;99.90;;;;;;5055348;28;20271;-78
2021/10/28 00:57:32;;;;;;;16.10;11.30;;;8.30;99.90;;;;;;5055147;28;20265;-78
2021/10/28 01:00:02;;;;;;;17.40;11.93;;;8.20;99.90;;;;;;5056059;28;20235;-78
2021/10/28 01:02:29;;;;;;;17.90;11.77;;;8.10;99.90;;;;;;5056709;28;20795;-77
2021/10/28 01:04:56;;;;;;;17.58;12.27;;;8.10;99.90;;;;;;5055758;28;20692;-78
2021/10/28 01:07:24;;;;;;;18.20;12.38;;;8.30;99.90;;;;;;5054453;28;20289;-78
2021/10/28 01:09:51;;;;;;;20.67;13.75;;;8.30;99.90;;;;;;5055163;28;20212;-78
2021/10/28 01:12:18;;;;;;;21.55;13.73;;;8.40;99.90;;;;;;5054472;28;20733;-78
2021/10/28 01:14:46;;;;;;;19.33;13.32;;;8.20;99.90;;;;;;5054155;28;20687;-78
2021/10/28 01:17:13;;;;;;;19.02;12.65;;;8.20;99.90;;;;;;5054275;28;20212;-78
2021/10/28 01:19:41;;;;;;;15.73;11.88;;;8.10;99.90;;;;;;5054286;28;20704;-79
2021/10/28 01:22:09;;;;;;;19.65;13.63;;;8.10;99.90;;;;;;5055306;28;20224;-79
2021/10/28 01:24:36;;;;;;;21.43;12.90;;;8.10;99.90;;;;;;5055555;28;20212;-79
2021/10/28 01:27:04;;;;;;;20.33;14.45;;;8.20;99.90;;;;;;5055325;28;20953;-79
2021/10/28 01:29:31;;;;;;;20.30;14.43;;;8.20;99.90;;;;;;5060294;28;20228;-78
2021/10/28 01:31:58;;;;;;;19.80;13.95;;;8.20;99.90;;;;;;5069196;28;20229;-78
2021/10/28 01:34:25;;;;;;;20.60;14.38;;;7.80;99.90;;;;;;5059188;28;20191;-79
2021/10/28 01:36:52;;;;;;;24.20;13.80;;;8.20;99.90;;;;;;5055505;28;20215;-79
2021/10/28 01:39:22;;;;;;;22.77;15.98;;;8.30;99.90;;;;;;5057268;28;20246;-79
2021/10/28 01:41:50;;;;;;;23.77;14.77;;;7.80;99.90;;;;;;5065683;28;20635;-79
2021/10/28 01:44:17;;;;;;;21.13;13.63;;;8.20;99.90;;;;;;5056192;28;20220;-78
2021/10/28 01:46:44;;;;;;;22.88;15.00;;;8.00;99.90;;;;;;5055358;28;20304;-79
2021/10/28 01:49:21;;;;;;;26.50;14.95;;;7.90;99.90;;;;;;5058125;28;20218;-78
2021/10/28 01:51:48;;;;;;;24.35;15.80;;;7.90;99.90;;;;;;5059960;28;20192;-79
2021/10/28 01:54:15;;;;;;;22.83;15.35;;;8.00;99.90;;;;;;5055798;28;20620;-78
2021/10/28 01:56:43;;;;;;;25.00;17.58;;;8.10;99.90;;;;;;5068340;28;20222;-78
2021/10/28 01:59:10;;;;;;;22.70;15.60;;;8.00;99.90;;;;;;5067799;28;20200;-78
2021/10/28 02:01:37;;;;;;;26.80;18.13;;;7.90;99.90;;;;;;5057994;28;20295;-78
2021/10/28 02:04:04;;;;;;;31.48;19.38;;;7.90;99.90;;;;;;5067497;28;20279;-78
2021/10/28 02:06:31;;;;;;;35.90;22.33;;;7.90;99.90;;;;;;5060842;28;20196;-79
2021/10/28 02:08:58;;;;;;;31.98;19.40;;;7.90;99.90;;;;;;5055128;28;20234;-79
2021/10/28 02:11:26;;;;;;;27.05;20.42;;;7.90;99.90;;;;;;5055304;28;20213;-79
2021/10/28 02:13:58;;;;;;;31.00;20.42;;;7.90;99.90;;;;;;5056469;28;20250;-79
2021/10/28 02:16:30;;;;;;;30.13;20.75;;;7.90;99.90;;;;;;5058980;28;20204;-78
2021/10/28 02:18:57;;;;;;;28.25;21.08;;;7.60;99.90;;;;;;5068774;28;20187;-79
2021/10/28 02:21:23;;;;;;;32.67;20.67;;;8.00;99.90;;;;;;5055602;28;20204;-79
2021/10/28 02:23:50;;;;;;;32.35;21.65;;;8.00;99.90;;;;;;5055157;28;20330;-79
2021/10/28 02:26:18;;;;;;;27.83;20.02;;;8.00;99.90;;;;;;5055493;28;20204;-79
2021/10/28 02:28:44;;;;;;;25.35;19.98;;;8.20;99.90;;;;;;5058609;28;20231;-79
2021/10/28 02:31:13;;;;;;;26.40;19.48;;;8.00;99.90;;;;;;5059095;28;20212;-79
2021/10/28 02:33:39;;;;;;;26.85;19.13;;;8.00;99.90;;;;;;5058906;28;20261;-79
2021/10/28 02:36:06;;;;;;;25.60;19.27;;;8.00;99.90;;;;;;5059068;28;20247;-79
2021/10/28 02:38:33;;;;;;;26.50;20.50;;;8.00;99.90;;;;;;5058952;28;20204;-79
2021/10/28 02:41:00;;;;;;;25.60;18.98;;;7.90;99.90;;;;;;5058290;28;20211;-79
2021/10/28 02:43:27;;;;;;;25.35;19.25;;;8.10;99.90;;;;;;5058973;28;20231;-79
2021/10/28 02:45:54;;;;;;;24.73;18.85;;;8.00;99.90;;;;;;5059626;28;20242;-79
2021/10/28 02:48:22;;;;;;;23.55;17.63;;;7.60;99.90;;;;;;5058967;28;20227;-79
2021/10/28 02:50:49;;;;;;;27.75;18.33;;;8.00;99.90;;;;;;5060030;28;20242;-79
2021/10/28 02:53:16;;;;;;;24.23;17.35;;;8.10;99.90;;;;;;5065219;28;20265;-78
2021/10/28 02:55:43;;;;;;;23.83;16.40;;;8.10;99.90;;;;;;5069902;28;20755;-78
2021/10/28 02:58:09;;;;;;;25.27;19.17;;;7.90;99.90;;;;;;5069825;28;20234;-78
2021/10/28 03:00:37;;;;;;;23.50;17.52;;;8.00;99.90;;;;;;5067411;28;20223;-78
2021/10/28 03:03:04;;;;;;;22.88;16.45;;;7.80;99.90;;;;;;5059620;28;20729;-79
2021/10/28 03:05:32;;;;;;;21.92;16.30;;;7.90;99.90;;;;;;5064255;28;20302;-78
2021/10/28 03:07:59;;;;;;;22.17;17.60;;;7.90;99.90;;;;;;5067646;28;20217;-78
2021/10/28 03:10:26;;;;;;;21.75;16.27;;;7.80;99.90;;;;;;5059940;28;20266;-79
2021/10/28 03:12:54;;;;;;;21.48;17.05;;;7.70;99.90;;;;;;5057802;28;20780;-79
2021/10/28 03:15:22;;;;;;;22.83;17.30;;;7.90;99.90;;;;;;5065359;28;20280;-78
2021/10/28 03:18:08;;;;;;;23.02;17.95;;;7.90;99.90;;;;;;5068763;28;20218;-78
2021/10/28 03:26:06;;;;;;;21.40;15.93;;;7.80;99.90;;;;;;5057958;28;20192;-79
2021/10/28 03:28:32;;;;;;;19.23;15.55;;;7.80;99.90;;;;;;5057798;28;20568;-79
2021/10/28 03:30:59;;;;;;;21.52;15.93;;;7.80;99.90;;;;;;5057606;28;20210;-79
2021/10/28 03:33:26;;;;;;;19.13;16.08;;;7.50;99.90;;;;;;5056880;28;20230;-78
2021/10/28 03:35:54;;;;;;;18.63;14.95;;;7.60;99.90;;;;;;5057253;28;20213;-79
2021/10/28 03:38:24;;;;;;;17.13;14.55;;;7.70;99.90;;;;;;5058112;28;20236;-79
2021/10/28 03:41:29;;;;;;;18.88;14.30;;;7.70;99.90;;;;;;5057641;28;20221;-79
2021/10/28 04:04:11;;;;;;;22.20;15.98;;;7.60;99.90;;;;;;5065746;28;20226;-78
2021/10/28 04:17:51;;;;;;;22.42;17.00;;;7.00;99.90;;;;;;5092364;28;20185;-78
2021/10/28 04:20:36;;;;;;;22.00;16.38;;;7.30;99.90;;;;;;5092845;28;20194;-78
2021/10/28 04:31:18;;;;;;;21.67;16.25;;;7.30;99.90;;;;;;5092413;28;20216;-78
2021/10/28 04:33:45;;;;;;;23.58;17.25;;;7.30;99.90;;;;;;5101671;28;20226;-78
2021/10/28 04:36:13;;;;;;;23.83;17.10;;;7.40;99.90;;;;;;5092842;28;20202;-78
2021/10/28 04:38:41;;;;;;;24.83;17.67;;;7.40;99.90;;;;;;5091791;28;20289;-78
2021/10/28 04:41:08;;;;;;;24.08;18.35;;;7.40;99.90;;;;;;5092490;28;20211;-78
2021/10/28 04:43:35;;;;;;;22.52;17.38;;;7.50;99.90;;;;;;5092137;28;20227;-78
2021/10/28 04:46:03;;;;;;;25.08;18.27;;;7.70;99.90;;;;;;5092049;28;20244;-78
2021/10/28 04:48:30;;;;;;;25.23;17.90;;;7.60;99.90;;;;;;5090788;28;20233;-77
2021/10/28 04:50:56;;;;;;;26.27;19.15;;;7.60;99.90;;;;;;5090334;28;20298;-78
2021/10/28 04:53:24;;;;;;;24.77;17.70;;;7.70;99.90;;;;;;5090159;28;20710;-77
2021/10/28 04:55:52;;;;;;;23.58;18.20;;;7.40;99.90;;;;;;5090200;28;20210;-78
2021/10/28 04:58:19;;;;;;;25.60;18.58;;;7.50;99.90;;;;;;5096618;28;20202;-78
2021/10/28 05:00:45;;;;;;;28.70;19.33;;;7.70;99.90;;;;;;5092575;28;20242;-77
2021/10/28 05:03:12;;;;;;;28.30;20.45;;;7.50;99.90;;;;;;5086002;28;20233;-78
2021/10/28 05:05:39;;;;;;;29.13;20.48;;;7.60;99.90;;;;;;5083013;28;20599;-77
2021/10/28 05:08:06;;;;;;;29.98;21.25;;;7.50;99.90;;;;;;5088520;28;20314;-77
2021/10/28 05:10:34;;;;;;;27.67;20.27;;;7.80;99.90;;;;;;5079450;28;20212;-79
2021/10/28 05:13:02;;;;;;;31.35;21.00;;;7.80;99.90;;;;;;5077494;28;20235;-79
2021/10/28 05:15:29;;;;;;;29.17;20.13;;;7.80;99.90;;;;;;5077460;28;20214;-78
2021/10/28 05:17:56;;;;;;;28.70;20.60;;;7.80;99.90;;;;;;5077322;28;20719;-80
2021/10/28 05:20:23;;;;;;;29.30;21.25;;;7.90;99.90;;;;;;5078503;28;20212;-79
2021/10/28 05:22:49;;;;;;;28.00;20.60;;;7.90;99.90;;;;;;5078638;28;20673;-78
2021/10/28 05:25:16;;;;;;;31.13;21.83;;;7.90;99.90;;;;;;5080125;28;20202;-79
2021/10/28 05:27:43;;;;;;;32.17;21.92;;;7.90;99.90;;;;;;5077368;28;20730;-78
2021/10/28 05:30:13;;;;;;;30.10;20.98;;;8.00;99.90;;;;;;5077886;28;20204;-78
2021/10/28 05:32:40;;;;;;;29.20;20.25;;;8.00;99.90;;;;;;5077789;28;20274;-79
2021/10/28 05:35:07;;;;;;;27.30;19.40;;;8.10;99.90;;;;;;5078036;28;20303;-79
2021/10/28 05:37:34;;;;;;;28.58;20.77;;;7.90;99.90;;;;;;5083286;28;20699;-79
2021/10/28 05:40:02;;;;;;;30.00;21.38;;;8.10;99.90;;;;;;5079411;28;20203;-78
2021/10/28 05:42:30;;;;;;;30.48;22.70;;;8.10;99.90;;;;;;5083648;28;20312;-78
2021/10/28 05:44:57;;;;;;;29.33;21.17;;;8.10;99.90;;;;;;5088983;28;20551;-78
2021/10/28 05:47:25;;;;;;;32.20;21.48;;;8.00;99.90;;;;;;5078510;28;20211;-78
2021/10/28 05:49:53;;;;;;;33.33;22.65;;;8.00;99.90;;;;;;5077453;28;20249;-78
2021/10/28 05:52:20;;;;;;;29.63;21.95;;;8.00;99.90;;;;;;5077562;28;20755;-79
2021/10/28 05:54:47;;;;;;;30.15;21.85;;;8.00;99.90;;;;;;5077222;28;20206;-78
2021/10/28 05:57:14;;;;;;;30.63;21.40;;;8.10;99.90;;;;;;5076807;28;20205;-78
2021/10/28 05:59:41;;;;;;;31.52;22.40;;;8.00;99.90;;;;;;5088698;28;20462;-78
2021/10/28 06:02:08;;;;;;;29.30;21.92;;;8.10;99.90;;;;;;5089329;28;20224;-78
2021/10/28 06:04:36;;;;;;;28.63;19.52;;;8.10;99.90;;;;;;5083193;28;20657;-78
2021/10/28 06:07:03;;;;;;;31.20;22.58;;;8.20;99.90;;;;;;5077054;28;20581;-78
2021/10/28 06:09:30;;;;;;;28.52;20.48;;;8.10;99.90;;;;;;5081135;28;20227;-77
2021/10/28 06:11:58;;;;;;;28.02;19.88;;;8.10;99.90;;;;;;5076280;28;20316;-78
2021/10/28 06:14:26;;;;;;;26.98;20.30;;;8.20;99.90;;;;;;5075391;28;20620;-79
2021/10/28 06:16:56;;;;;;;27.97;19.10;;;8.10;99.90;;;;;;5075544;28;20204;-77
2021/10/28 06:19:22;;;;;;;30.10;20.60;;;8.10;99.90;;;;;;5075302;28;20503;-77
2021/10/28 06:21:50;;;;;;;27.60;20.55;;;8.20;99.90;;;;;;5076395;28;20217;-79
2021/10/28 06:24:17;;;;;;;28.23;21.02;;;8.20;99.90;;;;;;5077302;28;20205;-82
2021/10/28 06:26:44;;;;;;;30.83;18.27;;;8.20;99.90;;;;;;5077800;28;20750;-79
2021/10/28 06:29:11;;;;;;;27.88;19.38;;;8.20;99.90;;;;;;5077233;28;20228;-79
2021/10/28 06:31:38;;;;;;;25.17;17.60;;;8.20;99.90;;;;;;5077456;28;20216;-79
2021/10/28 06:34:08;;;;;;;26.40;18.55;;;7.90;99.90;;;;;;5073721;22;20256;-79
2021/10/28 06:36:36;;;;;;;22.67;16.42;;;8.40;99.90;;;;;;5036786;28;20193;-79
2021/10/28 06:39:05;;;;;;;25.75;19.17;;;8.20;99.90;;;;;;5037034;28;20282;-77
2021/10/28 06:41:32;;;;;;;24.23;17.88;;;8.20;99.90;;;;;;5038642;28;20622;-78
2021/10/28 06:44:00;;;;;;;24.25;17.75;;;7.90;99.90;;;;;;5037787;28;20286;-79
2021/10/28 06:46:27;;;;;;;26.52;18.88;;;8.40;99.90;;;;;;5036553;28;20236;-79
2021/10/28 06:48:56;;;;;;;26.17;17.90;;;8.30;99.90;;;;;;5039975;28;20242;-82
2021/10/28 06:51:23;;;;;;;23.13;18.02;;;8.30;99.90;;;;;;5043989;28;20271;-79
2021/10/28 06:53:59;;;;;;;24.33;18.60;;;7.90;99.90;;;;;;5037692;28;20749;-83
2021/10/28 06:56:43;;;;;;;22.65;16.75;;;8.20;99.90;;;;;;5040003;28;20246;-79
2021/10/28 07:04:38;;;;;;;20.20;16.35;;;8.20;99.90;;;;;;5042122;28;20465;-78
2021/10/28 07:07:05;;;;;;;23.50;17.08;;;8.30;99.90;;;;;;5043309;28;20740;-78
2021/10/28 07:09:34;;;;;;;24.55;17.15;;;8.20;99.90;;;;;;5042882;28;20260;-78
2021/10/28 07:12:12;;;;;;;22.50;16.42;;;8.30;99.90;;;;;;5042421;28;20216;-78
2021/10/28 07:14:43;;;;;;;21.75;16.55;;;7.90;99.90;;;;;;5043639;28;20234;-78
2021/10/28 07:17:18;;;;;;;22.40;16.23;;;7.90;99.90;;;;;;5053487;28;20189;-78
2021/10/28 07:20:04;;;;;;;20.00;15.52;;;8.30;99.90;;;;;;5044764;28;20188;-78
2021/10/28 07:22:41;;;;;;;19.70;15.02;;;8.40;99.90;;;;;;5037732;28;20198;-78
2021/10/28 07:25:35;;;;;;;22.52;16.80;;;8.50;99.90;;;;;;5036316;28;20260;-78
2021/10/28 07:28:19;;;;;;;21.20;16.45;;;8.50;99.90;;;;;;5041315;28;20566;-78
2021/10/28 07:31:01;;;;;;;24.83;16.10;;;8.50;99.90;;;;;;5040025;28;20189;-78
2021/10/28 08:15:12;;;;;;;20.88;16.27;;;8.30;99.90;;;;;;5036080;28;20294;-77
2021/10/28 08:18:01;;;;;;;22.85;17.90;;;8.30;99.90;;;;;;5041732;28;20193;-77
2021/10/28 08:20:54;;;;;;;23.02;16.33;;;8.10;99.90;;;;;;5037551;28;20184;-79
2021/10/28 08:23:32;;;;;;;22.00;16.17;;;8.30;99.90;;;;;;5040332;28;20235;-78
2021/10/28 08:28:45;;;;;;;22.45;16.58;;;8.60;99.90;;;;;;5034025;28;20578;-78
2021/10/28 08:31:16;;;;;;;21.13;15.07;;;8.70;99.90;;;;;;5036907;28;20213;-78
2021/10/28 08:33:44;;;;;;;21.90;15.52;;;8.80;99.90;;;;;;5036245;28;20331;-77
2021/10/28 08:36:12;;;;;;;25.58;15.90;;;8.80;99.90;;;;;;5040684;28;20272;-78
2021/10/28 08:38:40;;;;;;;21.58;16.70;;;8.90;99.90;;;;;;5039932;28;20686;-76
2021/10/28 08:41:08;;;;;;;20.88;16.20;;;9.00;99.90;;;;;;5042868;28;20234;-77
2021/10/28 08:43:42;;;;;;;20.67;13.73;;;9.20;99.90;;;;;;5041727;28;20406;-77
2021/10/28 08:46:11;;;;;;;26.08;15.85;;;9.50;99.90;;;;;;5039249;28;20293;-77
2021/10/28 08:48:41;;;;;;;19.20;14.33;;;9.50;99.90;;;;;;5039398;28;20233;-77
2021/10/28 08:51:15;;;;;;;17.07;12.73;;;9.70;99.90;;;;;;5039919;28;20469;-77
2021/10/28 08:56:45;;;;;;;17.80;13.27;;;9.90;99.90;;;;;;5041668;28;20498;-78
2021/10/28 08:59:32;;;;;;;17.53;13.40;;;9.80;99.90;;;;;;5040976;28;20411;-78
2021/10/28 09:19:41;;;;;;;26.90;16.27;;;10.90;99.90;;;;;;5016638;28;20425;-77
2021/10/28 09:25:09;;;;;;;19.90;15.07;;;11.00;99.90;;;;;;5002404;28;20439;-78
2021/10/28 09:27:43;;;;;;;21.97;16.63;;;11.20;99.90;;;;;;5029583;28;20452;-78
2021/10/28 09:30:14;;;;;;;23.90;16.40;;;11.30;99.90;;;;;;5037478;28;20477;-78
2021/10/28 09:32:46;;;;;;;24.00;18.13;;;11.50;99.90;;;;;;5038805;28;20460;-78
2021/10/28 09:35:27;;;;;;;25.57;17.40;;;11.60;99.90;;;;;;5039133;28;20500;-79
2021/10/28 09:43:51;;;;;;;21.60;15.87;;;12.00;99.90;;;;;;5038657;28;20453;-78
2021/10/28 09:46:32;;;;;;;22.53;16.60;;;12.00;99.90;;;;;;5038946;28;20415;-80
2021/10/28 09:51:54;;;;;;;24.10;17.43;;;12.20;99.90;;;;;;5031184;28;20446;-79
2021/10/28 09:54:32;;;;;;;23.93;17.07;;;12.20;99.90;;;;;;5039797;28;20825;-78
2021/10/28 09:59:50;;;;;;;24.13;17.17;;;12.30;99.90;;;;;;5037436;28;20460;-78
2021/10/28 10:02:19;;;;;;;23.70;17.77;;;12.40;99.90;;;;;;5039651;28;20808;-77
2021/10/28 10:04:48;;;;;;;22.17;16.03;;;12.50;99.90;;;;;;5039129;28;20432;-77
2021/10/28 10:07:21;;;;;;;26.77;17.77;;;12.60;99.90;;;;;;5044678;28;20499;-78
2021/10/28 10:09:48;;;;;;;23.00;16.70;;;12.70;99.90;;;;;;5039604;28;20470;-77
2021/10/28 10:12:17;;;;;;;21.13;17.07;;;12.80;99.90;;;;;;5038510;28;20454;-78
2021/10/28 10:14:46;;;;;;;23.20;18.20;;;12.80;99.90;;;;;;5038542;28;20452;-82
2021/10/28 10:17:13;;;;;;;23.50;17.10;;;12.90;99.90;;;;;;5037528;28;20878;-77
2021/10/28 10:19:44;;;;;;;21.83;17.47;;;12.90;99.90;;;;;;5036098;28;20428;-78
2021/10/28 10:22:20;;;;;;;20.20;16.30;;;13.00;99.90;;;;;;5040353;28;20500;-78
2021/10/28 10:25:00;;;;;;;22.30;17.40;;;13.10;99.90;;;;;;5036830;28;20473;-77
2021/10/28 11:33:41;;;;;;;19.20;14.87;;;14.60;99.90;;;;;;5040806;28;20425;-81
2021/10/28 12:24:08;;;;;;;17.43;13.47;;;15.30;99.90;;;;;;5042249;28;20474;-81
2021/10/28 12:44:16;;;;;;;16.73;12.97;;;15.40;99.90;;;;;;5066855;28;20408;-81
2021/10/28 12:50:08;;;;;;;16.07;12.77;;;15.50;99.90;;;;;;5073642;28;20447;-80
2021/10/28 12:52:54;;;;;;;16.53;12.77;;;15.50;99.90;;;;;;5073532;28;20432;-80
2021/10/28 12:55:40;;;;;;;16.93;13.43;;;15.60;99.90;;;;;;5072625;28;20603;-80
2021/10/28 13:03:57;;;;;;;16.40;12.10;;;15.60;99.90;;;;;;5068921;28;20404;-81
2021/10/28 13:51:11;;;;;;;17.43;11.10;;;15.80;99.90;;;;;;5066684;28;20521;-81
2021/10/28 14:21:44;;;;;;;15.13;11.07;;;16.20;99.90;;;;;;5023509;28;20417;-81
2021/10/28 14:24:38;;;;;;;14.07;9.90;;;16.10;99.90;;;;;;5024412;28;20482;-81
2021/10/28 14:27:25;;;;;;;16.03;10.70;;;16.10;99.90;;;;;;5052285;28;20812;-81
2021/10/28 14:33:04;;;;;;;16.90;12.03;;;16.30;99.90;;;;;;5063759;28;20392;-82
2021/10/28 15:28:08;;;;;;;14.40;10.83;;;15.70;99.90;;;;;;5059668;28;20387;-84
2021/10/28 15:31:00;;;;;;;15.77;11.73;;;15.60;99.90;;;;;;5065324;28;20995;-83
2021/10/28 15:36:11;;;;;;;16.37;12.37;;;15.60;99.90;;;;;;5058786;28;20404;-88
2021/10/28 15:38:47;;;;;;;13.77;10.30;;;15.60;99.90;;;;;;5059495;28;20400;-86
2021/10/28 15:41:47;;;;;;;16.00;10.50;;;15.60;99.90;;;;;;5062856;28;20907;-85
2021/10/28 16:23:25;;;;;;;14.60;9.90;;;14.60;99.90;;;;;;5064671;28;20482;-81
2021/10/28 16:25:52;;;;;;;13.53;10.40;;;14.50;99.90;;;;;;5063095;28;20427;-81
2021/10/28 16:28:19;;;;;;;15.97;10.30;;;14.30;99.90;;;;;;5068198;28;20484;-85
2021/10/28 16:30:48;;;;;;;12.97;9.47;;;14.30;99.90;;;;;;5065737;28;20488;-85
2021/10/28 16:33:16;;;;;;;12.07;8.90;;;14.30;99.90;;;;;;5062181;28;20510;-85
2021/10/28 16:35:44;;;;;;;20.83;11.63;;;14.20;99.90;;;;;;5062922;28;20638;-87
2021/10/28 16:38:11;;;;;;;17.90;10.43;;;14.00;99.90;;;;;;5062023;28;20448;-84
2021/10/28 16:40:38;;;;;;;14.53;10.10;;;13.90;99.90;;;;;;5060321;28;20452;-83
2021/10/28 16:43:06;;;;;;;12.03;8.13;;;13.90;99.90;;;;;;5065394;28;20897;-87
2021/10/28 16:45:33;;;;;;;13.37;9.80;;;13.90;99.90;;;;;;5062017;28;20443;-86
2021/10/28 16:48:00;;;;;;;13.77;9.37;;;13.80;99.90;;;;;;5060085;28;20449;-83
2021/10/28 16:50:30;;;;;;;24.00;12.97;;;13.80;99.90;;;;;;5061587;28;20822;-86
2021/10/28 16:52:57;;;;;;;11.90;9.33;;;13.70;99.90;;;;;;5064052;28;20419;-86
2021/10/28 16:55:24;;;;;;;13.20;9.77;;;13.50;99.90;;;;;;5061872;28;20478;-82
2021/10/28 16:57:51;;;;;;;13.83;9.30;;;13.50;99.90;;;;;;5068662;28;20384;-83
2021/10/28 17:00:19;;;;;;;14.90;9.47;;;13.40;99.90;;;;;;5073895;28;20443;-82
2021/10/28 17:02:46;;;;;;;12.23;8.80;;;13.40;99.90;;;;;;5065721;28;20491;-84
2021/10/28 17:05:15;;;;;;;12.17;8.77;;;13.30;99.90;;;;;;5066827;28;20560;-84
2021/10/28 17:07:43;;;;;;;14.80;9.50;;;13.30;99.90;;;;;;5064123;28;20555;-80
2021/10/28 17:10:11;;;;;;;14.37;10.60;;;13.20;99.90;;;;;;5062457;28;20519;-81
2021/10/28 17:12:39;;;;;;;14.20;9.63;;;13.20;99.90;;;;;;5061426;28;20423;-80
2021/10/28 17:15:07;;;;;;;18.70;10.43;;;13.10;99.90;;;;;;5060279;28;20907;-81
2021/10/28 17:17:35;;;;;;;13.93;9.37;;;13.00;99.90;;;;;;5062078;28;20423;-86
2021/10/28 17:20:05;;;;;;;12.60;9.47;;;12.90;99.90;;;;;;5064685;28;20816;-88
2021/10/28 17:22:33;;;;;;;12.90;8.90;;;12.90;99.90;;;;;;5061314;28;20892;-87
2021/10/28 17:25:03;;;;;;;13.70;9.90;;;12.80;99.90;;;;;;5062430;28;20474;-85
2021/10/28 17:27:30;;;;;;;14.83;8.83;;;12.80;99.90;;;;;;5063465;28;20536;-86
2021/10/28 17:29:57;;;;;;;16.37;9.40;;;12.80;99.90;;;;;;5062678;28;20430;-87
2021/10/28 17:32:25;;;;;;;11.93;9.33;;;12.80;99.90;;;;;;5065889;28;20428;-85
2021/10/28 17:34:51;;;;;;;14.37;10.37;;;12.60;99.90;;;;;;5072649;28;20476;-85
2021/10/28 17:37:18;;;;;;;22.10;14.57;;;12.50;99.90;;;;;;5064070;28;20452;-86
2021/10/28 17:39:45;;;;;;;16.13;11.53;;;12.50;99.90;;;;;;5059756;28;20434;-80
2021/10/28 17:42:14;;;;;;;14.80;11.73;;;12.40;99.90;;;;;;5065013;28;20808;-83
2021/10/28 17:44:43;;;;;;;14.80;9.67;;;12.30;99.90;;;;;;5060386;28;20508;-83
2021/10/28 17:47:11;;;;;;;20.30;11.70;;;12.40;99.90;;;;;;5068861;28;20449;-83
2021/10/28 17:49:38;;;;;;;18.60;11.00;;;12.40;99.90;;;;;;5064632;28;20495;-83
2021/10/28 17:52:07;;;;;;;17.30;12.23;;;12.30;99.90;;;;;;5059870;28;20459;-83
2021/10/28 17:54:35;;;;;;;19.37;13.27;;;12.30;99.90;;;;;;5060389;28;20564;-82
2021/10/28 17:57:04;;;;;;;13.90;10.00;;;12.30;99.90;;;;;;5060677;28;20544;-81
2021/10/28 17:59:32;;;;;;;16.00;9.77;;;12.30;99.90;;;;;;5062503;28;20530;-85
2021/10/28 18:01:59;;;;;;;16.73;11.57;;;12.30;99.90;;;;;;5061529;28;20476;-86
2021/10/28 18:04:26;;;;;;;13.77;10.67;;;12.30;99.90;;;;;;5061438;28;20537;-85
2021/10/28 18:06:53;;;;;;;12.83;10.17;;;12.30;99.90;;;;;;5070528;28;20498;-85
2021/10/28 18:09:22;;;;;;;12.57;9.70;;;12.30;99.90;;;;;;5063400;28;20473;-81
2021/10/28 18:11:50;;;;;;;15.67;9.57;;;12.20;99.90;;;;;;5070379;28;20495;-81
2021/10/28 18:14:18;;;;;;;13.90;9.97;;;12.20;99.90;;;;;;5069523;28;20503;-81
2021/10/28 18:16:47;;;;;;;12.50;10.97;;;12.00;99.90;;;;;;5067687;28;20861;-81
2021/10/28 18:19:15;;;;;;;34.53;17.53;;;11.90;99.90;;;;;;5060521;28;20540;-81
2021/10/28 18:21:44;;;;;;;15.60;10.37;;;11.90;99.90;;;;;;5061307;28;20427;-82
2021/10/28 18:24:14;;;;;;;15.40;11.13;;;11.90;99.90;;;;;;5061774;28;20543;-81
2021/10/28 18:26:41;;;;;;;15.90;10.97;;;11.70;99.90;;;;;;5069237;28;20496;-83
2021/10/28 18:29:08;;;;;;;15.03;11.17;;;11.70;99.90;;;;;;5069442;28;20468;-80
2021/10/28 18:31:35;;;;;;;16.13;10.43;;;11.80;99.90;;;;;;5063027;28;20788;-81
2021/10/28 18:34:04;;;;;;;17.37;11.17;;;11.60;99.90;;;;;;5061513;28;20554;-81
2021/10/28 18:36:33;;;;;;;17.53;12.10;;;11.50;99.90;;;;;;5065051;28;20540;-80
2021/10/28 18:39:01;;;;;;;16.50;12.23;;;11.40;99.90;;;;;;5064445;28;20464;-81
2021/10/28 18:41:28;;;;;;;16.40;12.13;;;11.40;99.90;;;;;;5082291;22;20429;-78
2021/10/28 18:43:55;;;;;;;19.43;13.00;;;11.40;99.90;;;;;;5039641;28;20940;-79
2021/10/28 18:46:22;;;;;;;18.20;13.13;;;11.30;99.90;;;;;;5041588;28;20449;-78
2021/10/28 18:48:51;;;;;;;15.20;12.00;;;11.40;99.90;;;;;;5043292;28;20428;-79
2021/10/28 18:51:20;;;;;;;15.93;12.63;;;11.30;99.90;;;;;;5049759;28;20494;-78
2021/10/28 18:53:48;;;;;;;16.67;12.30;;;11.30;99.90;;;;;;5041057;28;20446;-80
2021/10/28 18:56:16;;;;;;;17.33;13.00;;;11.30;99.90;;;;;;5039323;28;20456;-79
2021/10/28 18:58:44;;;;;;;18.13;12.90;;;11.10;99.90;;;;;;5039262;28;20450;-80
2021/10/28 19:01:11;;;;;;;21.53;14.23;;;11.00;99.90;;;;;;5038637;28;20456;-80
2021/10/28 19:03:40;;;;;;;17.77;13.63;;;10.90;99.90;;;;;;5038413;28;20563;-79
2021/10/28 19:06:07;;;;;;;21.70;15.70;;;10.90;99.90;;;;;;5037500;28;20471;-79
2021/10/28 19:08:37;;;;;;;17.63;13.57;;;11.00;99.90;;;;;;5037381;28;20907;-80
2021/10/28 19:11:04;;;;;;;20.27;13.80;;;11.00;99.90;;;;;;5038553;28;20464;-79
2021/10/28 19:13:32;;;;;;;16.87;13.80;;;10.90;99.90;;;;;;5038032;28;20504;-79
2021/10/28 19:15:59;;;;;;;22.93;14.00;;;10.80;99.90;;;;;;5039076;28;20453;-80
2021/10/28 19:18:26;;;;;;;20.07;13.60;;;10.70;99.90;;;;;;5037027;28;20544;-80
2021/10/28 19:20:53;;;;;;;20.80;13.67;;;10.80;99.90;;;;;;5037910;28;20521;-80
2021/10/28 19:23:20;;;;;;;24.80;15.90;;;10.80;99.90;;;;;;5036987;28;20564;-80
2021/10/28 19:25:48;;;;;;;19.27;13.00;;;10.90;99.90;;;;;;5037958;28;20481;-78
2021/10/28 19:28:16;;;;;;;20.00;13.20;;;10.90;99.90;;;;;;5047049;28;20458;-79
2021/10/28 19:30:47;;;;;;;17.00;12.67;;;10.70;99.90;;;;;;5053137;28;20512;-78
2021/10/28 19:33:16;;;;;;;21.83;15.23;;;10.70;99.90;;;;;;5043313;28;20496;-80
2021/10/28 19:35:47;;;;;;;20.03;13.77;;;10.60;99.90;;;;;;5042908;28;20475;-79
2021/10/28 19:38:24;;;;;;;17.17;13.20;;;10.50;99.90;;;;;;5041753;28;20435;-79
2021/10/28 19:46:41;;;;;;;19.87;13.43;;;10.60;99.90;;;;;;4996087;28;20830;-79
2021/10/28 19:49:07;;;;;;;18.73;12.50;;;10.60;99.90;;;;;;5027151;28;20465;-80
2021/10/28 19:51:34;;;;;;;19.57;13.60;;;10.50;99.90;;;;;;5037039;28;20489;-79
2021/10/28 19:54:02;;;;;;;17.80;12.80;;;10.70;99.90;;;;;;5037598;28;20431;-81
2021/10/28 19:56:31;;;;;;;17.10;13.70;;;10.60;99.90;;;;;;5038204;28;20502;-81
2021/10/28 19:59:00;;;;;;;20.77;16.43;;;10.60;99.90;;;;;;5037618;28;20457;-81
2021/10/28 20:01:32;;;;;;;16.37;13.00;;;10.60;99.90;;;;;;5038357;28;20475;-81
2021/10/28 20:20:22;;;;;;;19.27;13.80;;;10.40;99.90;;;;;;5038572;28;20413;-80
2021/10/28 20:22:50;;;;;;;22.03;14.07;;;10.50;99.90;;;;;;5047447;28;20467;-79
2021/10/28 20:25:18;;;;;;;20.80;13.70;;;10.30;99.90;;;;;;5039033;28;20457;-80
2021/10/28 20:27:48;;;;;;;18.60;13.60;;;10.30;99.90;;;;;;5041084;28;20516;-79
2021/10/28 20:30:17;;;;;;;22.30;14.60;;;10.20;99.90;;;;;;5043607;28;20459;-79
2021/10/28 20:32:43;;;;;;;22.23;15.20;;;10.20;99.90;;;;;;5052651;28;20497;-79
2021/10/28 20:35:14;;;;;;;19.90;15.60;;;10.20;99.90;;;;;;5049364;28;20462;-79
2021/10/28 20:37:46;;;;;;;21.27;15.47;;;10.10;99.90;;;;;;5041838;28;20429;-80
2021/10/28 20:40:13;;;;;;;22.10;12.97;;;10.00;99.90;;;;;;5042936;28;20913;-80